sensor_id;sensor_type;location;lat;lon;timestamp;pressure;altitude;pressure_sealevel;temperature;humidity
56807;BME280;42687;42.524;12.052;2022-09-29T00:00:24;95562.63;;;15.28;91.01
56807;BME280;42687;42.524;12.052;2022-09-29T00:02:51;95554.53;;;15.30;91.10
56807;BME280;42687;42.524;12.052;2022-09-29T00:05:17;95564.28;;;15.29;91.12
56807;BME280;42687;42.524;12.052;2022-09-29T00:07:42;95566.94;;;15.29;91.37
56807;BME280;42687;42.524;12.052;2022-09-29T00:10:08;95567.75;;;15.30;91.38
56807;BME280;42687;42.524;12.052;2022-09-29T00:12:33;95567.59;;;15.31;91.64
56807;BME280;42687;42.524;12.052;2022-09-29T00:14:59;95566.63;;;15.32;92.12
56807;BME280;42687;42.524;12.052;2022-09-29T00:17:24;95565.66;;;15.33;92.11
56807;BME280;42687;42.524;12.052;2022-09-29T00:19:50;95562.16;;;15.33;92.07
56807;BME280;42687;42.524;12.052;2022-09-29T00:22:15;95556.19;;;15.31;92.01
56807;BME280;42687;42.524;12.052;2022-09-29T00:24:41;95552.09;;;15.37;92.39
56807;BME280;42687;42.524;12.052;2022-09-29T00:27:06;95561.19;;;15.34;92.44
56807;BME280;42687;42.524;12.052;2022-09-29T00:29:32;95572.63;;;15.34;92.45
56807;BME280;42687;42.524;12.052;2022-09-29T00:31:57;95568.16;;;15.35;92.67
56807;BME280;42687;42.524;12.052;2022-09-29T00:34:22;95562.84;;;15.35;92.99
56807;BME280;42687;42.524;12.052;2022-09-29T00:36:48;95568.16;;;15.35;92.93
56807;BME280;42687;42.524;12.052;2022-09-29T00:39:13;95568.97;;;15.35;93.07
56807;BME280;42687;42.524;12.052;2022-09-29T00:41:39;95510.34;;;15.02;93.20
56807;BME280;42687;42.524;12.052;2022-09-29T00:51:36;95563.50;;;15.19;93.15
56807;BME280;42687;42.524;12.052;2022-09-29T00:54:04;95561.97;;;15.16;93.18
56807;BME280;42687;42.524;12.052;2022-09-29T00:56:31;95564.22;;;15.11;93.29
56807;BME280;42687;42.524;12.052;2022-09-29T00:58:59;95555.63;;;15.09;93.51
56807;BME280;42687;42.524;12.052;2022-09-29T01:01:27;95553.94;;;15.08;93.90
56807;BME280;42687;42.524;12.052;2022-09-29T01:04:15;95552.28;;;15.07;93.55
56807;BME280;42687;42.524;12.052;2022-09-29T01:06:50;95537.34;;;15.06;93.88
56807;BME280;42687;42.524;12.052;2022-09-29T01:09:18;95541.97;;;15.04;93.52
56807;BME280;42687;42.524;12.052;2022-09-29T01:11:45;95545.91;;;15.00;93.88
56807;BME280;42687;42.524;12.052;2022-09-29T01:14:11;95511.97;;;14.86;93.92
56807;BME280;42687;42.524;12.052;2022-09-29T01:16:38;95524.44;;;14.93;94.05
56807;BME280;42687;42.524;12.052;2022-09-29T01:19:13;95522.97;;;14.91;94.14
56807;BME280;42687;42.524;12.052;2022-09-29T01:22:03;95517.78;;;14.89;94.20
56807;BME280;42687;42.524;12.052;2022-09-29T01:27:15;95529.22;;;14.90;94.43
56807;BME280;42687;42.524;12.052;2022-09-29T01:32:16;95520.16;;;14.92;94.48
56807;BME280;42687;42.524;12.052;2022-09-29T01:34:49;95513.59;;;14.96;94.27
56807;BME280;42687;42.524;12.052;2022-09-29T01:39:55;95514.03;;;14.92;94.37
56807;BME280;42687;42.524;12.052;2022-09-29T01:42:26;95513.88;;;14.93;94.64
56807;BME280;42687;42.524;12.052;2022-09-29T01:47:36;95518.03;;;14.96;94.58
56807;BME280;42687;42.524;12.052;2022-09-29T01:50:05;95508.84;;;15.00;94.89
56807;BME280;42687;42.524;12.052;2022-09-29T01:52:32;95508.38;;;15.05;95.46
56807;BME280;42687;42.524;12.052;2022-09-29T01:55:09;95514.22;;;15.08;94.74
56807;BME280;42687;42.524;12.052;2022-09-29T01:57:44;95504.84;;;15.14;94.75
56807;BME280;42687;42.524;12.052;2022-09-29T02:00:12;95512.22;;;15.20;94.91
56807;BME280;42687;42.524;12.052;2022-09-29T02:02:46;95517.34;;;15.22;94.73
56807;BME280;42687;42.524;12.052;2022-09-29T02:05:25;95507.16;;;15.27;94.94
56807;BME280;42687;42.524;12.052;2022-09-29T02:07:52;95516.47;;;15.31;94.97
56807;BME280;42687;42.524;12.052;2022-09-29T02:10:24;95516.16;;;15.34;95.32
56807;BME280;42687;42.524;12.052;2022-09-29T02:12:52;95511.56;;;15.36;95.32
56807;BME280;42687;42.524;12.052;2022-09-29T02:15:20;95515.03;;;15.37;95.44
56807;BME280;42687;42.524;12.052;2022-09-29T02:17:47;95512.22;;;15.38;95.45
56807;BME280;42687;42.524;12.052;2022-09-29T02:20:14;95512.75;;;15.42;95.75
56807;BME280;42687;42.524;12.052;2022-09-29T02:22:39;95511.78;;;15.43;95.84
56807;BME280;42687;42.524;12.052;2022-09-29T02:25:07;95515.97;;;15.45;96.02
56807;BME280;42687;42.524;12.052;2022-09-29T02:27:33;95512.19;;;15.48;96.39
56807;BME280;42687;42.524;12.052;2022-09-29T02:29:59;95503.22;;;15.49;96.27
56807;BME280;42687;42.524;12.052;2022-09-29T02:32:25;95519.66;;;15.52;96.06
56807;BME280;42687;42.524;12.052;2022-09-29T02:34:51;95520.34;;;15.55;96.26
56807;BME280;42687;42.524;12.052;2022-09-29T02:42:35;95502.31;;;15.58;96.25
56807;BME280;42687;42.524;12.052;2022-09-29T02:58:36;95472.66;;;15.37;96.11
56807;BME280;42687;42.524;12.052;2022-09-29T03:01:03;95473.78;;;15.34;96.45
56807;BME280;42687;42.524;12.052;2022-09-29T03:03:30;95474.75;;;15.33;96.45
56807;BME280;42687;42.524;12.052;2022-09-29T03:05:55;95488.69;;;15.35;96.68
56807;BME280;42687;42.524;12.052;2022-09-29T03:08:21;95502.63;;;15.37;96.59
56807;BME280;42687;42.524;12.052;2022-09-29T03:10:46;95499.38;;;15.43;96.47
56807;BME280;42687;42.524;12.052;2022-09-29T03:13:12;95505.75;;;15.50;96.98
56807;BME280;42687;42.524;12.052;2022-09-29T03:15:37;95504.00;;;15.59;96.93
56807;BME280;42687;42.524;12.052;2022-09-29T03:18:03;95505.50;;;15.62;96.58
56807;BME280;42687;42.524;12.052;2022-09-29T03:20:29;95501.72;;;15.64;96.86
56807;BME280;42687;42.524;12.052;2022-09-29T03:22:55;95499.59;;;15.68;96.56
56807;BME280;42687;42.524;12.052;2022-09-29T03:25:20;95479.59;;;15.74;96.81
56807;BME280;42687;42.524;12.052;2022-09-29T03:27:48;95484.47;;;15.78;96.80
56807;BME280;42687;42.524;12.052;2022-09-29T03:30:14;95481.38;;;15.83;97.30
56807;BME280;42687;42.524;12.052;2022-09-29T03:32:40;95485.69;;;15.84;96.98
56807;BME280;42687;42.524;12.052;2022-09-29T03:35:06;95489.00;;;15.86;97.36
56807;BME280;42687;42.524;12.052;2022-09-29T03:37:32;95497.66;;;15.88;97.42
56807;BME280;42687;42.524;12.052;2022-09-29T03:39:57;95489.69;;;15.88;97.75
56807;BME280;42687;42.524;12.052;2022-09-29T03:42:23;95514.38;;;15.89;97.61
56807;BME280;42687;42.524;12.052;2022-09-29T03:44:49;95505.59;;;15.88;97.87
56807;BME280;42687;42.524;12.052;2022-09-29T03:47:14;95511.88;;;15.87;97.97
56807;BME280;42687;42.524;12.052;2022-09-29T03:49:40;95525.31;;;15.86;98.25
56807;BME280;42687;42.524;12.052;2022-09-29T03:52:05;95524.47;;;15.85;98.13
56807;BME280;42687;42.524;12.052;2022-09-29T03:54:31;95530.06;;;15.82;98.38
56807;BME280;42687;42.524;12.052;2022-09-29T03:56:57;95520.56;;;15.79;98.50
56807;BME280;42687;42.524;12.052;2022-09-29T03:59:22;95525.19;;;15.77;98.29
56807;BME280;42687;42.524;12.052;2022-09-29T04:01:48;95476.50;;;15.42;98.59
56807;BME280;42687;42.524;12.052;2022-09-29T04:04:13;95516.34;;;15.68;98.41
56807;BME280;42687;42.524;12.052;2022-09-29T04:06:39;95523.91;;;15.63;98.37
56807;BME280;42687;42.524;12.052;2022-09-29T04:09:04;95523.38;;;15.60;98.29
56807;BME280;42687;42.524;12.052;2022-09-29T04:11:30;95524.69;;;15.56;98.41
56807;BME280;42687;42.524;12.052;2022-09-29T04:13:55;95526.94;;;15.50;98.33
56807;BME280;42687;42.524;12.052;2022-09-29T04:16:21;95525.41;;;15.48;98.14
56807;BME280;42687;42.524;12.052;2022-09-29T04:18:46;95511.78;;;15.43;98.03
56807;BME280;42687;42.524;12.052;2022-09-29T04:21:12;95520.88;;;15.40;98.08
56807;BME280;42687;42.524;12.052;2022-09-29T04:23:37;95527.97;;;15.40;97.46
56807;BME280;42687;42.524;12.052;2022-09-29T04:26:03;95530.34;;;15.43;97.66
56807;BME280;42687;42.524;12.052;2022-09-29T04:28:32;95531.00;;;15.45;97.92
56807;BME280;42687;42.524;12.052;2022-09-29T04:30:58;95521.41;;;15.44;97.97
56807;BME280;42687;42.524;12.052;2022-09-29T04:33:24;95520.56;;;15.43;97.88
56807;BME280;42687;42.524;12.052;2022-09-29T04:35:49;95525.19;;;15.41;97.95
56807;BME280;42687;42.524;12.052;2022-09-29T04:38:15;95526.31;;;15.39;97.85
56807;BME280;42687;42.524;12.052;2022-09-29T04:40:41;95522.97;;;15.37;98.20
56807;BME280;42687;42.524;12.052;2022-09-29T04:43:07;95522.97;;;15.37;98.05
56807;BME280;42687;42.524;12.052;2022-09-29T04:45:32;95527.13;;;15.39;98.19
56807;BME280;42687;42.524;12.052;2022-09-29T04:47:57;95524.19;;;15.42;98.34
56807;BME280;42687;42.524;12.052;2022-09-29T04:50:23;95532.50;;;15.47;98.34
56807;BME280;42687;42.524;12.052;2022-09-29T04:52:49;95535.56;;;15.52;98.36
56807;BME280;42687;42.524;12.052;2022-09-29T04:55:14;95531.34;;;15.60;98.55
56807;BME280;42687;42.524;12.052;2022-09-29T04:57:40;95523.38;;;15.60;98.57
56807;BME280;42687;42.524;12.052;2022-09-29T05:00:06;95514.59;;;15.59;98.49
56807;BME280;42687;42.524;12.052;2022-09-29T05:02:33;95469.22;;;15.26;98.56
56807;BME280;42687;42.524;12.052;2022-09-29T05:04:59;95508.25;;;15.52;98.14
56807;BME280;42687;42.524;12.052;2022-09-29T05:07:24;95515.09;;;15.45;98.10
56807;BME280;42687;42.524;12.052;2022-09-29T05:09:50;95505.28;;;15.37;98.26
56807;BME280;42687;42.524;12.052;2022-09-29T05:12:15;95512.00;;;15.31;98.27
56807;BME280;42687;42.524;12.052;2022-09-29T05:14:41;95512.06;;;15.22;98.37
56807;BME280;42687;42.524;12.052;2022-09-29T05:17:06;95503.88;;;15.15;98.03
56807;BME280;42687;42.524;12.052;2022-09-29T05:19:32;95500.69;;;15.11;98.77
56807;BME280;42687;42.524;12.052;2022-09-29T05:21:57;95504.75;;;15.06;99.03
56807;BME280;42687;42.524;12.052;2022-09-29T05:24:23;95514.97;;;15.00;100.00
56807;BME280;42687;42.524;12.052;2022-09-29T05:26:49;95524.03;;;14.98;99.65
56807;BME280;42687;42.524;12.052;2022-09-29T05:29:14;95520.66;;;15.06;99.12
56807;BME280;42687;42.524;12.052;2022-09-29T05:31:41;95519.06;;;15.13;99.21
56807;BME280;42687;42.524;12.052;2022-09-29T05:34:06;95521.13;;;15.19;99.41
56807;BME280;42687;42.524;12.052;2022-09-29T05:36:32;95519.69;;;15.25;99.07
56807;BME280;42687;42.524;12.052;2022-09-29T05:38:57;95519.94;;;15.31;99.12
56807;BME280;42687;42.524;12.052;2022-09-29T05:41:23;95515.88;;;15.37;98.85
56807;BME280;42687;42.524;12.052;2022-09-29T05:43:49;95490.41;;;15.26;98.86
56807;BME280;42687;42.524;12.052;2022-09-29T05:46:15;95517.84;;;15.53;98.60
56807;BME280;42687;42.524;12.052;2022-09-29T05:48:44;95520.75;;;15.60;98.96
56807;BME280;42687;42.524;12.052;2022-09-29T05:51:10;95514.00;;;15.65;98.56
56807;BME280;42687;42.524;12.052;2022-09-29T05:53:36;95519.53;;;15.72;98.86
56807;BME280;42687;42.524;12.052;2022-09-29T05:56:05;95527.16;;;15.75;98.82
56807;BME280;42687;42.524;12.052;2022-09-29T05:58:31;95501.88;;;15.63;98.77
56807;BME280;42687;42.524;12.052;2022-09-29T06:00:57;95544.84;;;15.84;99.12
56807;BME280;42687;42.524;12.052;2022-09-29T06:03:22;95552.34;;;15.89;99.08
56807;BME280;42687;42.524;12.052;2022-09-29T06:05:48;95551.28;;;16.00;99.16
56807;BME280;42687;42.524;12.052;2022-09-29T06:08:13;95554.38;;;16.13;99.42
56807;BME280;42687;42.524;12.052;2022-09-29T06:10:39;95556.78;;;16.25;99.33
56807;BME280;42687;42.524;12.052;2022-09-29T06:13:04;95555.56;;;16.37;99.39
56807;BME280;42687;42.524;12.052;2022-09-29T06:15:30;95551.19;;;16.54;99.43
56807;BME280;42687;42.524;12.052;2022-09-29T06:17:56;95539.06;;;16.78;99.12
56807;BME280;42687;42.524;12.052;2022-09-29T06:20:22;95531.69;;;16.90;99.63
56807;BME280;42687;42.524;12.052;2022-09-29T06:22:47;95551.13;;;16.98;99.65
56807;BME280;42687;42.524;12.052;2022-09-29T06:25:15;95545.91;;;17.15;99.70
56807;BME280;42687;42.524;12.052;2022-09-29T06:27:41;95557.69;;;17.12;100.00
56807;BME280;42687;42.524;12.052;2022-09-29T06:30:07;95561.78;;;17.07;100.00
56807;BME280;42687;42.524;12.052;2022-09-29T06:32:32;95555.28;;;17.01;100.00
56807;BME280;42687;42.524;12.052;2022-09-29T06:34:58;95562.91;;;16.96;100.00
56807;BME280;42687;42.524;12.052;2022-09-29T06:37:42;95560.94;;;16.98;100.00
56807;BME280;42687;42.524;12.052;2022-09-29T06:40:10;95566.78;;;17.10;100.00
56807;BME280;42687;42.524;12.052;2022-09-29T06:42:36;95573.28;;;17.15;100.00
56807;BME280;42687;42.524;12.052;2022-09-29T06:45:02;95564.75;;;17.46;100.00
56807;BME280;42687;42.524;12.052;2022-09-29T06:47:28;95563.50;;;17.75;100.00
56807;BME280;42687;42.524;12.052;2022-09-29T06:49:53;95572.56;;;18.15;100.00
56807;BME280;42687;42.524;12.052;2022-09-29T06:52:19;95558.59;;;18.22;100.00
56807;BME280;42687;42.524;12.052;2022-09-29T06:54:45;95564.09;;;18.12;100.00
56807;BME280;42687;42.524;12.052;2022-09-29T06:57:10;95569.56;;;17.94;100.00
56807;BME280;42687;42.524;12.052;2022-09-29T06:59:36;95567.19;;;17.82;99.63
56807;BME280;42687;42.524;12.052;2022-09-29T07:02:01;95560.34;;;17.72;99.37
56807;BME280;42687;42.524;12.052;2022-09-29T07:04:27;95555.53;;;17.67;99.39
56807;BME280;42687;42.524;12.052;2022-09-29T07:06:53;95527.69;;;17.28;99.43
56807;BME280;42687;42.524;12.052;2022-09-29T07:09:19;95554.94;;;17.39;99.68
56807;BME280;42687;42.524;12.052;2022-09-29T07:11:46;95552.94;;;17.32;99.36
56807;BME280;42687;42.524;12.052;2022-09-29T07:14:12;95556.13;;;17.36;99.09
56807;BME280;42687;42.524;12.052;2022-09-29T07:16:38;95569.22;;;17.38;99.27
56807;BME280;42687;42.524;12.052;2022-09-29T07:19:04;95562.56;;;17.33;99.08
56807;BME280;42687;42.524;12.052;2022-09-29T07:21:29;95544.06;;;17.15;99.11
56807;BME280;42687;42.524;12.052;2022-09-29T07:23:55;95568.69;;;17.26;98.72
56807;BME280;42687;42.524;12.052;2022-09-29T07:26:20;95568.88;;;17.32;98.48
56807;BME280;42687;42.524;12.052;2022-09-29T07:28:46;95561.75;;;17.41;98.15
56807;BME280;42687;42.524;12.052;2022-09-29T07:31:13;95555.63;;;17.49;98.02
56807;BME280;42687;42.524;12.052;2022-09-29T07:33:39;95566.50;;;17.64;98.34
56807;BME280;42687;42.524;12.052;2022-09-29T07:36:05;95547.97;;;18.05;97.41
56807;BME280;42687;42.524;12.052;2022-09-29T07:38:31;95551.78;;;18.19;97.82
56807;BME280;42687;42.524;12.052;2022-09-29T07:41:00;95512.13;;;18.65;96.43
56807;BME280;42687;42.524;12.052;2022-09-29T07:43:26;95546.75;;;19.93;95.71
56807;BME280;42687;42.524;12.052;2022-09-29T07:45:52;95540.31;;;20.48;94.81
56807;BME280;42687;42.524;12.052;2022-09-29T07:48:17;95542.50;;;20.45;93.07
56807;BME280;42687;42.524;12.052;2022-09-29T07:50:43;95535.22;;;20.77;92.15
56807;BME280;42687;42.524;12.052;2022-09-29T07:53:09;95541.50;;;20.84;91.22
56807;BME280;42687;42.524;12.052;2022-09-29T07:55:35;95541.88;;;20.96;90.06
56807;BME280;42687;42.524;12.052;2022-09-29T07:58:01;95552.88;;;20.63;91.38
56807;BME280;42687;42.524;12.052;2022-09-29T08:00:27;95553.81;;;20.32;92.75
56807;BME280;42687;42.524;12.052;2022-09-29T08:02:54;95557.84;;;20.05;93.47
56807;BME280;42687;42.524;12.052;2022-09-29T08:05:20;95565.97;;;19.88;93.69
56807;BME280;42687;42.524;12.052;2022-09-29T08:07:49;95564.44;;;19.94;93.33
56807;BME280;42687;42.524;12.052;2022-09-29T08:10:15;95567.00;;;19.79;93.38
56807;BME280;42687;42.524;12.052;2022-09-29T08:12:40;95561.69;;;19.71;93.09
56807;BME280;42687;42.524;12.052;2022-09-29T08:15:06;95558.34;;;19.77;92.24
56807;BME280;42687;42.524;12.052;2022-09-29T08:17:31;95561.19;;;19.75;91.97
56807;BME280;42687;42.524;12.052;2022-09-29T08:19:57;95558.81;;;19.80;90.06
56807;BME280;42687;42.524;12.052;2022-09-29T08:22:22;95545.69;;;20.02;88.50
56807;BME280;42687;42.524;12.052;2022-09-29T08:24:48;95551.22;;;20.00;87.87
56807;BME280;42687;42.524;12.052;2022-09-29T08:27:13;95550.84;;;20.04;87.93
56807;BME280;42687;42.524;12.052;2022-09-29T08:29:39;95553.28;;;19.90;87.62
56807;BME280;42687;42.524;12.052;2022-09-29T08:32:06;95551.03;;;19.71;88.32
56807;BME280;42687;42.524;12.052;2022-09-29T08:34:31;95555.66;;;19.45;88.02
56807;BME280;42687;42.524;12.052;2022-09-29T08:36:57;95549.75;;;19.27;88.58
56807;BME280;42687;42.524;12.052;2022-09-29T08:39:22;95536.16;;;19.13;88.46
56807;BME280;42687;42.524;12.052;2022-09-29T08:44:33;95499.59;;;18.91;88.33
56807;BME280;42687;42.524;12.052;2022-09-29T08:52:13;95542.53;;;18.96;88.09
56807;BME280;42687;42.524;12.052;2022-09-29T08:54:42;95551.22;;;18.81;88.31
56807;BME280;42687;42.524;12.052;2022-09-29T08:57:18;95545.91;;;18.57;87.93
56807;BME280;42687;42.524;12.052;2022-09-29T08:59:45;95553.28;;;18.30;87.70
56807;BME280;42687;42.524;12.052;2022-09-29T09:04:52;95553.13;;;18.07;87.92
56807;BME280;42687;42.524;12.052;2022-09-29T09:07:20;95573.19;;;17.93;87.89
56807;BME280;42687;42.524;12.052;2022-09-29T09:09:50;95580.81;;;17.88;87.96
56807;BME280;42687;42.524;12.052;2022-09-29T09:20:14;95571.94;;;19.90;85.67
56807;BME280;42687;42.524;12.052;2022-09-29T09:27:40;95560.63;;;19.57;85.66
56807;BME280;42687;42.524;12.052;2022-09-29T09:30:13;95563.19;;;19.42;85.23
56807;BME280;42687;42.524;12.052;2022-09-29T09:32:50;95564.66;;;19.53;83.74
56807;BME280;42687;42.524;12.052;2022-09-29T09:38:20;95565.25;;;19.94;82.09
56807;BME280;42687;42.524;12.052;2022-09-29T09:40:51;95569.34;;;20.28;79.84
56807;BME280;42687;42.524;12.052;2022-09-29T09:45:56;95568.25;;;21.29;79.79
56807;BME280;42687;42.524;12.052;2022-09-29T09:50:49;95567.63;;;21.78;78.38
56807;BME280;42687;42.524;12.052;2022-09-29T09:53:17;95559.88;;;21.83;79.17
56807;BME280;42687;42.524;12.052;2022-09-29T09:55:46;95554.25;;;22.00;79.10
56807;BME280;42687;42.524;12.052;2022-09-29T09:58:22;95544.06;;;22.32;79.02
56807;BME280;42687;42.524;12.052;2022-09-29T10:01:00;95545.97;;;22.88;78.28
56807;BME280;42687;42.524;12.052;2022-09-29T10:03:27;95559.56;;;22.87;77.53
56807;BME280;42687;42.524;12.052;2022-09-29T10:05:53;95519.72;;;21.83;78.20
56807;BME280;42687;42.524;12.052;2022-09-29T10:08:22;95551.19;;;21.15;78.11
56807;BME280;42687;42.524;12.052;2022-09-29T10:10:50;95560.19;;;20.46;79.58
56807;BME280;42687;42.524;12.052;2022-09-29T10:13:15;95560.00;;;20.09;80.05
56807;BME280;42687;42.524;12.052;2022-09-29T10:18:28;95491.91;;;19.67;78.94
56807;BME280;42687;42.524;12.052;2022-09-29T10:20:56;95535.56;;;20.59;78.42
56807;BME280;42687;42.524;12.052;2022-09-29T10:23:23;95540.94;;;20.89;77.11
56807;BME280;42687;42.524;12.052;2022-09-29T10:28:39;95541.41;;;20.39;76.50
56807;BME280;42687;42.524;12.052;2022-09-29T10:36:46;95546.28;;;19.89;73.97
56807;BME280;42687;42.524;12.052;2022-09-29T10:39:36;95490.25;;;19.89;74.75
56807;BME280;42687;42.524;12.052;2022-09-29T10:42:03;95540.88;;;20.21;73.90
56807;BME280;42687;42.524;12.052;2022-09-29T10:44:40;95535.25;;;20.15;73.44
56807;BME280;42687;42.524;12.052;2022-09-29T10:47:06;95545.00;;;20.08;73.50
56807;BME280;42687;42.524;12.052;2022-09-29T10:49:38;95516.72;;;19.99;73.43
56807;BME280;42687;42.524;12.052;2022-09-29T10:52:05;95538.13;;;20.29;72.39
56807;BME280;42687;42.524;12.052;2022-09-29T10:54:36;95546.88;;;20.23;72.71
56807;BME280;42687;42.524;12.052;2022-09-29T10:57:11;95540.66;;;20.07;72.39
56807;BME280;42687;42.524;12.052;2022-09-29T10:59:44;95539.56;;;19.93;72.60
56807;BME280;42687;42.524;12.052;2022-09-29T11:02:10;95532.34;;;20.02;71.95
56807;BME280;42687;42.524;12.052;2022-09-29T11:04:40;95539.09;;;20.36;71.35
56807;BME280;42687;42.524;12.052;2022-09-29T11:07:10;95494.41;;;20.15;70.99
56807;BME280;42687;42.524;12.052;2022-09-29T11:09:38;95548.31;;;20.72;69.78
56807;BME280;42687;42.524;12.052;2022-09-29T11:12:05;95536.25;;;20.53;69.64
56807;BME280;42687;42.524;12.052;2022-09-29T11:14:48;95548.69;;;20.45;69.62
56807;BME280;42687;42.524;12.052;2022-09-29T11:19:58;95547.53;;;20.63;69.17
56807;BME280;42687;42.524;12.052;2022-09-29T11:27:20;95545.16;;;21.43;66.45
56807;BME280;42687;42.524;12.052;2022-09-29T11:35:15;95529.28;;;21.56;65.44
56807;BME280;42687;42.524;12.052;2022-09-29T11:37:48;95533.75;;;21.04;67.89
56807;BME280;42687;42.524;12.052;2022-09-29T11:40:28;95522.94;;;20.67;68.73
56807;BME280;42687;42.524;12.052;2022-09-29T11:46:16;95518.53;;;20.60;67.68
56807;BME280;42687;42.524;12.052;2022-09-29T11:48:18;95515.50;;;21.23;67.30
56807;BME280;42687;42.524;12.052;2022-09-29T12:01:02;95517.66;;;21.86;64.50
56807;BME280;42687;42.524;12.052;2022-09-29T12:11:37;95471.91;;;21.22;66.52
56807;BME280;42687;42.524;12.052;2022-09-29T12:17:10;95471.22;;;20.83;66.54
56807;BME280;42687;42.524;12.052;2022-09-29T12:19:37;95487.13;;;20.77;66.63
56807;BME280;42687;42.524;12.052;2022-09-29T12:22:08;95476.34;;;20.70;66.42
56807;BME280;42687;42.524;12.052;2022-09-29T12:26:59;95481.31;;;21.03;65.68
56807;BME280;42687;42.524;12.052;2022-09-29T12:29:37;95480.13;;;21.06;65.66
56807;BME280;42687;42.524;12.052;2022-09-29T12:32:15;95478.19;;;20.85;66.27
56807;BME280;42687;42.524;12.052;2022-09-29T12:35:01;95475.09;;;20.81;66.33
56807;BME280;42687;42.524;12.052;2022-09-29T12:37:40;95482.41;;;20.64;66.69
56807;BME280;42687;42.524;12.052;2022-09-29T12:42:47;95464.78;;;20.25;67.17
56807;BME280;42687;42.524;12.052;2022-09-29T12:45:21;95461.69;;;19.98;67.91
56807;BME280;42687;42.524;12.052;2022-09-29T12:47:56;95469.75;;;19.90;68.28
56807;BME280;42687;42.524;12.052;2022-09-29T12:55:20;95461.13;;;20.03;67.77
56807;BME280;42687;42.524;12.052;2022-09-29T12:57:46;95461.97;;;20.41;67.17
56807;BME280;42687;42.524;12.052;2022-09-29T13:00:15;95457.25;;;20.58;67.10
56807;BME280;42687;42.524;12.052;2022-09-29T13:02:55;95457.63;;;20.55;66.77
56807;BME280;42687;42.524;12.052;2022-09-29T13:08:21;95471.97;;;20.24;67.03
56807;BME280;42687;42.524;12.052;2022-09-29T13:23:51;95470.25;;;20.61;66.05
56807;BME280;42687;42.524;12.052;2022-09-29T13:28:50;95477.22;;;20.47;65.90
56807;BME280;42687;42.524;12.052;2022-09-29T13:31:22;95483.13;;;20.43;66.17
56807;BME280;42687;42.524;12.052;2022-09-29T13:33:53;95486.16;;;20.40;66.18
56807;BME280;42687;42.524;12.052;2022-09-29T13:36:23;95485.16;;;20.41;66.15
56807;BME280;42687;42.524;12.052;2022-09-29T13:38:54;95487.22;;;20.15;66.98
56807;BME280;42687;42.524;12.052;2022-09-29T13:49:02;95483.53;;;20.16;67.30
56807;BME280;42687;42.524;12.052;2022-09-29T13:51:40;95484.13;;;20.27;67.13
56807;BME280;42687;42.524;12.052;2022-09-29T13:57:04;95471.78;;;20.26;67.56
56807;BME280;42687;42.524;12.052;2022-09-29T13:59:31;95476.91;;;20.12;68.06
56807;BME280;42687;42.524;12.052;2022-09-29T14:01:57;95473.75;;;20.09;68.27
56807;BME280;42687;42.524;12.052;2022-09-29T14:07:15;95491.84;;;20.22;68.47
56807;BME280;42687;42.524;12.052;2022-09-29T14:10:02;95444.66;;;19.99;68.75
56807;BME280;42687;42.524;12.052;2022-09-29T14:12:28;95480.69;;;20.18;69.00
56807;BME280;42687;42.524;12.052;2022-09-29T14:14:55;95490.31;;;20.04;69.34
56807;BME280;42687;42.524;12.052;2022-09-29T14:17:26;95482.72;;;19.93;69.11
56807;BME280;42687;42.524;12.052;2022-09-29T14:30:19;95427.00;;;18.97;70.18
56807;BME280;42687;42.524;12.052;2022-09-29T14:33:19;95465.91;;;19.06;70.80
56807;BME280;42687;42.524;12.052;2022-09-29T14:35:39;95462.31;;;18.91;71.09
56807;BME280;42687;42.524;12.052;2022-09-29T14:40:36;95466.97;;;18.97;71.19
56807;BME280;42687;42.524;12.052;2022-09-29T14:43:07;95458.47;;;18.93;71.82
56807;BME280;42687;42.524;12.052;2022-09-29T14:45:59;95458.50;;;18.85;72.08
56807;BME280;42687;42.524;12.052;2022-09-29T14:48:52;95459.34;;;18.77;72.60
56807;BME280;42687;42.524;12.052;2022-09-29T14:51:41;95445.34;;;18.75;72.99
56807;BME280;42687;42.524;12.052;2022-09-29T14:54:28;95443.13;;;18.56;73.11
56807;BME280;42687;42.524;12.052;2022-09-29T14:56:58;95446.97;;;18.45;74.36
56807;BME280;42687;42.524;12.052;2022-09-29T14:59:32;95409.28;;;18.16;74.19
56807;BME280;42687;42.524;12.052;2022-09-29T15:02:12;95455.84;;;18.29;74.98
56807;BME280;42687;42.524;12.052;2022-09-29T15:04:41;95455.19;;;18.19;74.57
56807;BME280;42687;42.524;12.052;2022-09-29T15:07:10;95433.56;;;18.13;74.76
56807;BME280;42687;42.524;12.052;2022-09-29T15:09:37;95437.56;;;18.09;75.18
56807;BME280;42687;42.524;12.052;2022-09-29T15:12:12;95436.09;;;17.98;75.42
56807;BME280;42687;42.524;12.052;2022-09-29T15:14:39;95454.19;;;17.87;75.60
56807;BME280;42687;42.524;12.052;2022-09-29T15:19:37;95449.53;;;17.80;78.18
56807;BME280;42687;42.524;12.052;2022-09-29T15:24:45;95452.66;;;17.76;76.64
56807;BME280;42687;42.524;12.052;2022-09-29T15:27:14;95437.22;;;17.71;76.91
56807;BME280;42687;42.524;12.052;2022-09-29T15:29:53;95457.66;;;17.71;76.95
56807;BME280;42687;42.524;12.052;2022-09-29T15:32:25;95458.50;;;17.63;78.93
56807;BME280;42687;42.524;12.052;2022-09-29T15:34:52;95456.31;;;17.58;79.80
56807;BME280;42687;42.524;12.052;2022-09-29T15:37:18;95454.97;;;17.54;78.90
56807;BME280;42687;42.524;12.052;2022-09-29T15:39:48;95458.97;;;17.50;78.11
56807;BME280;42687;42.524;12.052;2022-09-29T15:42:18;95460.81;;;17.49;77.97
56807;BME280;42687;42.524;12.052;2022-09-29T15:44:53;95457.97;;;17.51;78.25
56807;BME280;42687;42.524;12.052;2022-09-29T15:47:36;95457.47;;;17.47;79.20
56807;BME280;42687;42.524;12.052;2022-09-29T15:50:17;95446.19;;;17.45;78.64
56807;BME280;42687;42.524;12.052;2022-09-29T15:52:43;95448.00;;;17.45;78.43